createdAt,value
2022-11-03T00:02:08.689Z,6.87
2022-11-03T00:04:36.443Z,6.84
2022-11-03T00:07:04.043Z,6.83
2022-11-03T00:09:31.874Z,6.80
2022-11-03T00:11:59.610Z,6.79
2022-11-03T00:14:27.830Z,6.77
2022-11-03T00:16:55.410Z,6.73
2022-11-03T00:19:22.989Z,6.70
2022-11-03T00:21:50.630Z,6.66
2022-11-03T00:24:18.211Z,6.63
2022-11-03T00:26:45.897Z,6.60
2022-11-03T00:29:15.488Z,6.57
2022-11-03T00:31:44.746Z,6.55
2022-11-03T00:34:12.819Z,6.54
2022-11-03T00:36:42.894Z,6.53
2022-11-03T00:39:11.569Z,6.52
2022-11-03T00:41:39.788Z,6.54
2022-11-03T00:44:10.359Z,6.55
2022-11-03T00:46:38.013Z,6.53
2022-11-03T00:49:06.145Z,6.49
2022-11-03T00:51:36.684Z,6.46
2022-11-03T00:54:07.151Z,6.45
2022-11-03T00:56:40.022Z,6.44
2022-11-03T00:59:09.430Z,6.43
2022-11-03T01:01:45.863Z,6.41
2022-11-03T01:04:34.119Z,6.38
2022-11-03T01:07:03.262Z,6.31
2022-11-03T01:09:34.094Z,6.26
2022-11-03T01:12:05.813Z,6.22
2022-11-03T01:14:41.172Z,6.19
2022-11-03T01:17:18.865Z,6.15
2022-11-03T01:19:46.917Z,6.14
2022-11-03T01:22:16.193Z,6.14
2022-11-03T01:24:44.758Z,6.15
2022-11-03T01:27:18.728Z,6.14
2022-11-03T01:29:46.574Z,6.10
2022-11-03T01:32:14.630Z,6.06
2022-11-03T01:34:42.324Z,6.03
2022-11-03T01:37:09.970Z,6.00
2022-11-03T01:39:37.678Z,5.96
2022-11-03T01:42:05.856Z,5.96
2022-11-03T01:44:39.616Z,5.95
2022-11-03T01:47:30.309Z,5.92
2022-11-03T01:50:07.537Z,5.89
2022-11-03T01:52:48.254Z,5.85
2022-11-03T01:55:32.822Z,5.82
2022-11-03T01:58:07.332Z,5.80
2022-11-03T02:00:35.940Z,5.77
2022-11-03T02:03:06.570Z,5.76
2022-11-03T02:05:35.660Z,5.74
2022-11-03T02:08:15.241Z,5.71
2022-11-03T02:10:43.127Z,5.68
2022-11-03T02:13:20.146Z,5.65
2022-11-03T02:15:49.908Z,5.63
2022-11-03T02:18:21.578Z,5.63
2022-11-03T02:20:59.109Z,5.65
2022-11-03T02:23:31.726Z,5.64
2022-11-03T02:26:00.361Z,5.64
2022-11-03T02:28:31.282Z,5.64
2022-11-03T02:31:05.903Z,5.62
2022-11-03T02:33:50.473Z,5.61
2022-11-03T02:36:21.160Z,5.60
2022-11-03T02:39:07.537Z,5.58
2022-11-03T02:41:38.120Z,5.55
2022-11-03T02:44:12.442Z,5.53
2022-11-03T02:46:42.500Z,5.52
2022-11-03T02:49:10.353Z,5.52
2022-11-03T02:51:37.981Z,5.52
2022-11-03T02:54:23.798Z,5.53
2022-11-03T02:57:01.645Z,5.54
2022-11-03T02:59:37.234Z,5.52
2022-11-03T03:02:15.234Z,5.51
2022-11-03T03:04:53.320Z,5.48
2022-11-03T03:07:31.794Z,5.46
2022-11-03T03:10:08.732Z,5.43
2022-11-03T03:12:40.747Z,5.42
2022-11-03T03:15:09.730Z,5.40
2022-11-03T03:17:47.418Z,5.40
2022-11-03T03:20:24.305Z,5.37
2022-11-03T03:23:19.337Z,5.35
2022-11-03T03:25:52.960Z,5.32
2022-11-03T03:28:39.708Z,5.30
2022-11-03T03:31:10.916Z,5.28
2022-11-03T03:33:42.119Z,5.26
2022-11-03T03:36:16.668Z,5.24
2022-11-03T03:38:52.565Z,5.21
2022-11-03T03:41:22.204Z,5.19
2022-11-03T03:44:00.369Z,5.18
2022-11-03T03:46:34.363Z,5.16
2022-11-03T03:49:02.644Z,5.14
2022-11-03T03:51:31.872Z,5.11
2022-11-03T03:54:00.605Z,5.06
2022-11-03T03:56:42.632Z,5.02
2022-11-03T03:59:10.307Z,5.02
2022-11-03T04:01:38.032Z,5.02
2022-11-03T04:04:05.851Z,5.02
2022-11-03T04:06:33.396Z,5.02
2022-11-03T04:09:00.972Z,4.99
2022-11-03T04:11:44.591Z,4.98
2022-11-03T04:14:28.231Z,4.99
2022-11-03T04:17:11.977Z,5.00
2022-11-03T04:19:55.604Z,5.02
2022-11-03T04:22:27.441Z,5.03
2022-11-03T04:24:55.094Z,5.03
2022-11-03T04:27:28.866Z,5.03
2022-11-03T04:30:00.214Z,4.99
2022-11-03T04:32:29.188Z,4.95
2022-11-03T04:34:58.308Z,4.91
2022-11-03T04:37:29.326Z,4.87
2022-11-03T04:40:00.558Z,4.85
2022-11-03T04:42:32.966Z,4.82
2022-11-03T04:45:02.768Z,4.80
2022-11-03T04:47:30.995Z,4.77
2022-11-03T04:49:59.159Z,4.75
2022-11-03T04:52:26.735Z,4.75
2022-11-03T04:54:54.365Z,4.72
2022-11-03T04:57:21.947Z,4.70
2022-11-03T04:59:53.012Z,4.68
2022-11-03T05:02:21.891Z,4.68
2022-11-03T05:04:49.491Z,4.69
2022-11-03T05:07:27.964Z,4.69
2022-11-03T05:09:55.616Z,4.71
2022-11-03T05:12:23.345Z,4.73
2022-11-03T05:14:56.983Z,4.75
2022-11-03T05:17:27.922Z,4.76
2022-11-03T05:20:00.013Z,4.76
2022-11-03T05:22:37.302Z,4.75
2022-11-03T05:25:38.080Z,4.74
2022-11-03T05:28:15.915Z,4.75
2022-11-03T05:30:43.667Z,4.75
2022-11-03T05:33:20.884Z,4.75
2022-11-03T05:35:48.621Z,4.74
2022-11-03T05:38:20.485Z,4.74
2022-11-03T05:40:54.114Z,4.75
2022-11-03T05:43:23.117Z,4.76
2022-11-03T05:45:55.346Z,4.76
2022-11-03T05:48:38.986Z,4.77
2022-11-03T05:51:21.956Z,4.73
2022-11-03T05:53:54.417Z,4.66
2022-11-03T05:56:24.895Z,4.62
2022-11-03T05:58:57.020Z,4.60
2022-11-03T06:01:29.830Z,4.63
2022-11-03T06:04:01.043Z,4.68
2022-11-03T06:06:38.449Z,4.71
2022-11-03T06:09:26.849Z,4.74
2022-11-03T06:11:58.284Z,4.75
2022-11-03T06:14:28.085Z,4.76
2022-11-03T06:17:08.338Z,4.78
2022-11-03T06:19:42.778Z,4.83
2022-11-03T06:22:29.438Z,4.88
2022-11-03T06:25:15.112Z,4.93
2022-11-03T06:27:43.166Z,4.98
2022-11-03T06:30:24.251Z,5.03
2022-11-03T06:32:53.401Z,5.07
2022-11-03T06:35:20.988Z,5.12
2022-11-03T06:37:48.918Z,5.12
2022-11-03T06:40:16.413Z,5.14
2022-11-03T06:42:44.184Z,5.16
2022-11-03T06:45:15.507Z,5.23
2022-11-03T06:47:43.138Z,5.31
2022-11-03T06:50:31.195Z,5.37
2022-11-03T06:53:03.976Z,5.41
2022-11-03T06:55:34.559Z,5.44
2022-11-03T06:58:12.708Z,5.46
2022-11-03T07:00:45.866Z,5.50
2022-11-03T07:03:35.300Z,5.54
2022-11-03T07:06:25.107Z,5.60
2022-11-03T07:09:00.086Z,5.63
2022-11-03T07:11:50.591Z,5.68
2022-11-03T07:14:24.656Z,5.76
2022-11-03T07:17:05.067Z,5.82
2022-11-03T07:19:41.216Z,5.90
2022-11-03T07:22:26.009Z,5.96
2022-11-03T07:25:24.821Z,6.04
2022-11-03T07:28:07.136Z,6.13
2022-11-03T07:31:06.135Z,6.20
2022-11-03T07:33:45.200Z,6.27
2022-11-03T07:36:59.115Z,6.38
2022-11-03T07:39:38.453Z,6.48
2022-11-03T07:42:25.239Z,6.55
2022-11-03T07:45:49.542Z,6.66
2022-11-03T07:48:34.498Z,6.77
2022-11-03T07:54:54.505Z,7.01
2022-11-03T07:58:38.206Z,7.10
2022-11-03T08:01:45.023Z,7.20
2022-11-03T08:04:34.705Z,7.28
